sensor_id;sensor_type;location;lat;lon;timestamp;P1;durP1;ratioP1;P2;durP2;ratioP2
7587;SDS011;3835;48.850;8.938;2023-11-21T00:01:01;11.73;;;11.13;;
7587;SDS011;3835;48.850;8.938;2023-11-21T00:03:29;11.57;;;11.07;;
7587;SDS011;3835;48.850;8.938;2023-11-21T00:05:56;12.00;;;11.40;;
7587;SDS011;3835;48.850;8.938;2023-11-21T00:08:24;12.07;;;11.37;;
7587;SDS011;3835;48.850;8.938;2023-11-21T00:10:51;10.73;;;10.23;;
7587;SDS011;3835;48.850;8.938;2023-11-21T00:13:17;11.83;;;11.23;;
7587;SDS011;3835;48.850;8.938;2023-11-21T00:15:44;12.17;;;11.47;;
7587;SDS011;3835;48.850;8.938;2023-11-21T00:18:11;11.30;;;10.83;;
7587;SDS011;3835;48.850;8.938;2023-11-21T00:20:39;10.93;;;10.47;;
7587;SDS011;3835;48.850;8.938;2023-11-21T00:23:05;11.33;;;10.83;;
7587;SDS011;3835;48.850;8.938;2023-11-21T00:25:36;12.23;;;11.57;;
7587;SDS011;3835;48.850;8.938;2023-11-21T00:28:03;11.17;;;10.57;;
7587;SDS011;3835;48.850;8.938;2023-11-21T00:30:30;12.07;;;11.47;;
7587;SDS011;3835;48.850;8.938;2023-11-21T00:32:58;11.57;;;10.83;;
7587;SDS011;3835;48.850;8.938;2023-11-21T00:35:25;11.80;;;10.87;;
7587;SDS011;3835;48.850;8.938;2023-11-21T00:37:51;11.47;;;10.87;;
7587;SDS011;3835;48.850;8.938;2023-11-21T00:40:18;12.37;;;11.67;;
7587;SDS011;3835;48.850;8.938;2023-11-21T00:42:47;13.07;;;12.37;;
7587;SDS011;3835;48.850;8.938;2023-11-21T00:45:14;11.63;;;11.03;;
7587;SDS011;3835;48.850;8.938;2023-11-21T00:47:41;13.07;;;12.37;;
7587;SDS011;3835;48.850;8.938;2023-11-21T00:50:08;11.40;;;10.87;;
7587;SDS011;3835;48.850;8.938;2023-11-21T00:52:35;12.83;;;12.10;;
7587;SDS011;3835;48.850;8.938;2023-11-21T00:55:02;12.23;;;11.50;;
7587;SDS011;3835;48.850;8.938;2023-11-21T00:57:32;12.40;;;11.73;;
7587;SDS011;3835;48.850;8.938;2023-11-21T01:00:01;12.13;;;11.33;;
7587;SDS011;3835;48.850;8.938;2023-11-21T01:02:31;12.23;;;11.63;;
7587;SDS011;3835;48.850;8.938;2023-11-21T01:05:00;11.87;;;11.27;;
7587;SDS011;3835;48.850;8.938;2023-11-21T01:07:28;12.20;;;11.50;;
7587;SDS011;3835;48.850;8.938;2023-11-21T01:09:55;11.57;;;10.87;;
7587;SDS011;3835;48.850;8.938;2023-11-21T01:12:22;11.80;;;11.20;;
7587;SDS011;3835;48.850;8.938;2023-11-21T01:14:50;11.10;;;10.60;;
7587;SDS011;3835;48.850;8.938;2023-11-21T01:17:18;11.20;;;10.70;;
7587;SDS011;3835;48.850;8.938;2023-11-21T01:19:47;11.93;;;11.33;;
7587;SDS011;3835;48.850;8.938;2023-11-21T01:22:14;12.53;;;11.60;;
7587;SDS011;3835;48.850;8.938;2023-11-21T01:24:41;12.03;;;11.50;;
7587;SDS011;3835;48.850;8.938;2023-11-21T01:27:08;12.53;;;11.80;;
7587;SDS011;3835;48.850;8.938;2023-11-21T01:29:35;11.53;;;10.83;;
7587;SDS011;3835;48.850;8.938;2023-11-21T01:32:02;12.60;;;11.83;;
7587;SDS011;3835;48.850;8.938;2023-11-21T01:34:30;11.43;;;10.83;;
7587;SDS011;3835;48.850;8.938;2023-11-21T01:36:57;12.93;;;12.13;;
7587;SDS011;3835;48.850;8.938;2023-11-21T01:39:24;11.50;;;10.90;;
7587;SDS011;3835;48.850;8.938;2023-11-21T01:41:51;11.90;;;11.20;;
7587;SDS011;3835;48.850;8.938;2023-11-21T01:44:18;11.47;;;10.53;;
7587;SDS011;3835;48.850;8.938;2023-11-21T01:46:45;11.23;;;10.73;;
7587;SDS011;3835;48.850;8.938;2023-11-21T01:49:13;11.60;;;10.90;;
7587;SDS011;3835;48.850;8.938;2023-11-21T01:51:41;11.67;;;11.07;;
7587;SDS011;3835;48.850;8.938;2023-11-21T01:54:10;11.10;;;10.50;;
7587;SDS011;3835;48.850;8.938;2023-11-21T01:56:37;12.00;;;11.43;;
7587;SDS011;3835;48.850;8.938;2023-11-21T01:59:04;12.00;;;11.30;;
7587;SDS011;3835;48.850;8.938;2023-11-21T02:01:32;12.93;;;12.13;;
7587;SDS011;3835;48.850;8.938;2023-11-21T02:03:59;12.17;;;11.47;;
7587;SDS011;3835;48.850;8.938;2023-11-21T02:06:26;13.00;;;12.00;;
7587;SDS011;3835;48.850;8.938;2023-11-21T02:08:57;11.73;;;11.23;;
7587;SDS011;3835;48.850;8.938;2023-11-21T02:11:24;12.47;;;11.67;;
7587;SDS011;3835;48.850;8.938;2023-11-21T02:13:52;11.57;;;10.90;;
7587;SDS011;3835;48.850;8.938;2023-11-21T02:16:20;13.43;;;12.27;;
7587;SDS011;3835;48.850;8.938;2023-11-21T02:18:47;12.87;;;12.13;;
7587;SDS011;3835;48.850;8.938;2023-11-21T02:21:14;11.77;;;11.13;;
7587;SDS011;3835;48.850;8.938;2023-11-21T02:23:43;12.70;;;12.00;;
7587;SDS011;3835;48.850;8.938;2023-11-21T02:26:11;13.07;;;12.23;;
7587;SDS011;3835;48.850;8.938;2023-11-21T02:28:39;12.40;;;11.77;;
7587;SDS011;3835;48.850;8.938;2023-11-21T02:31:06;13.23;;;12.33;;
7587;SDS011;3835;48.850;8.938;2023-11-21T02:33:33;11.97;;;11.37;;
7587;SDS011;3835;48.850;8.938;2023-11-21T02:35:59;13.13;;;12.43;;
7587;SDS011;3835;48.850;8.938;2023-11-21T02:38:26;13.93;;;12.90;;
7587;SDS011;3835;48.850;8.938;2023-11-21T02:40:56;12.23;;;11.63;;
7587;SDS011;3835;48.850;8.938;2023-11-21T02:43:24;12.77;;;12.10;;
7587;SDS011;3835;48.850;8.938;2023-11-21T02:45:51;11.47;;;10.77;;
7587;SDS011;3835;48.850;8.938;2023-11-21T02:48:18;11.13;;;10.10;;
7587;SDS011;3835;48.850;8.938;2023-11-21T02:50:45;11.87;;;11.10;;
7587;SDS011;3835;48.850;8.938;2023-11-21T02:53:12;11.60;;;10.90;;
7587;SDS011;3835;48.850;8.938;2023-11-21T02:55:40;13.20;;;12.27;;
7587;SDS011;3835;48.850;8.938;2023-11-21T02:58:08;12.20;;;11.60;;
7587;SDS011;3835;48.850;8.938;2023-11-21T03:00:35;12.27;;;11.67;;
7587;SDS011;3835;48.850;8.938;2023-11-21T03:03:02;11.33;;;10.67;;
7587;SDS011;3835;48.850;8.938;2023-11-21T03:05:29;11.50;;;10.97;;
7587;SDS011;3835;48.850;8.938;2023-11-21T03:07:56;13.20;;;12.33;;
7587;SDS011;3835;48.850;8.938;2023-11-21T03:10:22;12.60;;;12.00;;
7587;SDS011;3835;48.850;8.938;2023-11-21T03:12:49;12.33;;;11.63;;
7587;SDS011;3835;48.850;8.938;2023-11-21T03:15:18;11.70;;;10.97;;
7587;SDS011;3835;48.850;8.938;2023-11-21T03:17:44;11.93;;;11.23;;
7587;SDS011;3835;48.850;8.938;2023-11-21T03:20:14;12.33;;;11.63;;
7587;SDS011;3835;48.850;8.938;2023-11-21T03:22:41;12.33;;;11.63;;
7587;SDS011;3835;48.850;8.938;2023-11-21T03:25:08;11.83;;;11.23;;
7587;SDS011;3835;48.850;8.938;2023-11-21T03:27:36;12.47;;;11.67;;
7587;SDS011;3835;48.850;8.938;2023-11-21T03:30:04;12.13;;;11.40;;
7587;SDS011;3835;48.850;8.938;2023-11-21T03:32:34;12.77;;;12.17;;
7587;SDS011;3835;48.850;8.938;2023-11-21T03:35:01;13.23;;;12.00;;
7587;SDS011;3835;48.850;8.938;2023-11-21T03:37:29;12.60;;;11.63;;
7587;SDS011;3835;48.850;8.938;2023-11-21T03:39:56;12.90;;;12.10;;
7587;SDS011;3835;48.850;8.938;2023-11-21T03:42:23;12.53;;;11.93;;
7587;SDS011;3835;48.850;8.938;2023-11-21T03:44:51;11.80;;;11.30;;
7587;SDS011;3835;48.850;8.938;2023-11-21T03:47:18;12.60;;;11.70;;
7587;SDS011;3835;48.850;8.938;2023-11-21T03:49:47;11.67;;;11.17;;
7587;SDS011;3835;48.850;8.938;2023-11-21T03:52:13;12.23;;;11.63;;
7587;SDS011;3835;48.850;8.938;2023-11-21T03:54:40;11.63;;;11.03;;
7587;SDS011;3835;48.850;8.938;2023-11-21T03:57:08;12.07;;;11.37;;
7587;SDS011;3835;48.850;8.938;2023-11-21T03:59:35;12.47;;;11.73;;
7587;SDS011;3835;48.850;8.938;2023-11-21T04:02:03;12.57;;;11.87;;
7587;SDS011;3835;48.850;8.938;2023-11-21T04:04:30;12.33;;;11.53;;
7587;SDS011;3835;48.850;8.938;2023-11-21T04:06:58;11.57;;;10.90;;
7587;SDS011;3835;48.850;8.938;2023-11-21T04:09:25;12.53;;;11.83;;
7587;SDS011;3835;48.850;8.938;2023-11-21T04:11:53;12.03;;;11.43;;
7587;SDS011;3835;48.850;8.938;2023-11-21T04:14:20;13.30;;;12.60;;
7587;SDS011;3835;48.850;8.938;2023-11-21T04:16:48;12.70;;;11.97;;
7587;SDS011;3835;48.850;8.938;2023-11-21T04:19:15;12.83;;;12.20;;
7587;SDS011;3835;48.850;8.938;2023-11-21T04:21:42;13.27;;;12.63;;
7587;SDS011;3835;48.850;8.938;2023-11-21T04:24:11;12.20;;;11.63;;
7587;SDS011;3835;48.850;8.938;2023-11-21T04:26:37;13.17;;;12.37;;
7587;SDS011;3835;48.850;8.938;2023-11-21T04:29:04;11.97;;;11.27;;
7587;SDS011;3835;48.850;8.938;2023-11-21T04:31:31;12.77;;;12.17;;
7587;SDS011;3835;48.850;8.938;2023-11-21T04:33:58;12.40;;;11.67;;
7587;SDS011;3835;48.850;8.938;2023-11-21T04:36:26;12.27;;;11.67;;
7587;SDS011;3835;48.850;8.938;2023-11-21T04:38:53;11.90;;;11.30;;
7587;SDS011;3835;48.850;8.938;2023-11-21T04:41:21;12.30;;;11.60;;
7587;SDS011;3835;48.850;8.938;2023-11-21T04:43:48;12.20;;;11.40;;
7587;SDS011;3835;48.850;8.938;2023-11-21T04:46:15;13.17;;;12.47;;
7587;SDS011;3835;48.850;8.938;2023-11-21T04:48:42;12.37;;;11.77;;
7587;SDS011;3835;48.850;8.938;2023-11-21T04:51:09;13.00;;;12.17;;
7587;SDS011;3835;48.850;8.938;2023-11-21T04:53:36;12.20;;;11.60;;
7587;SDS011;3835;48.850;8.938;2023-11-21T04:56:04;12.33;;;11.80;;
7587;SDS011;3835;48.850;8.938;2023-11-21T04:58:33;11.87;;;11.30;;
7587;SDS011;3835;48.850;8.938;2023-11-21T05:01:00;12.50;;;11.90;;
7587;SDS011;3835;48.850;8.938;2023-11-21T05:03:28;11.73;;;11.13;;
7587;SDS011;3835;48.850;8.938;2023-11-21T05:05:56;11.50;;;10.73;;
7587;SDS011;3835;48.850;8.938;2023-11-21T05:08:22;11.43;;;10.80;;
7587;SDS011;3835;48.850;8.938;2023-11-21T05:10:50;12.73;;;12.13;;
7587;SDS011;3835;48.850;8.938;2023-11-21T05:13:18;12.87;;;11.97;;
7587;SDS011;3835;48.850;8.938;2023-11-21T05:15:47;13.00;;;12.40;;
7587;SDS011;3835;48.850;8.938;2023-11-21T05:18:13;13.37;;;12.67;;
7587;SDS011;3835;48.850;8.938;2023-11-21T05:20:40;14.07;;;13.20;;
7587;SDS011;3835;48.850;8.938;2023-11-21T05:23:07;13.07;;;12.10;;
7587;SDS011;3835;48.850;8.938;2023-11-21T05:25:34;12.40;;;11.80;;
7587;SDS011;3835;48.850;8.938;2023-11-21T05:28:01;13.73;;;13.03;;
7587;SDS011;3835;48.850;8.938;2023-11-21T05:30:29;13.90;;;13.20;;
7587;SDS011;3835;48.850;8.938;2023-11-21T05:32:57;13.57;;;12.87;;
7587;SDS011;3835;48.850;8.938;2023-11-21T05:35:24;14.40;;;13.70;;
7587;SDS011;3835;48.850;8.938;2023-11-21T05:37:51;14.57;;;13.77;;
7587;SDS011;3835;48.850;8.938;2023-11-21T05:40:19;15.77;;;14.87;;
7587;SDS011;3835;48.850;8.938;2023-11-21T05:42:47;13.53;;;12.83;;
7587;SDS011;3835;48.850;8.938;2023-11-21T05:45:14;13.87;;;13.13;;
7587;SDS011;3835;48.850;8.938;2023-11-21T05:47:42;14.17;;;13.40;;
7587;SDS011;3835;48.850;8.938;2023-11-21T05:50:12;13.83;;;13.03;;
7587;SDS011;3835;48.850;8.938;2023-11-21T05:52:40;13.47;;;12.67;;
7587;SDS011;3835;48.850;8.938;2023-11-21T05:55:08;13.33;;;12.53;;
7587;SDS011;3835;48.850;8.938;2023-11-21T05:57:35;14.17;;;13.47;;
7587;SDS011;3835;48.850;8.938;2023-11-21T06:00:03;12.83;;;12.07;;
7587;SDS011;3835;48.850;8.938;2023-11-21T06:02:36;12.87;;;12.17;;
7587;SDS011;3835;48.850;8.938;2023-11-21T06:05:04;13.50;;;12.70;;
7587;SDS011;3835;48.850;8.938;2023-11-21T06:07:33;19.67;;;18.37;;
7587;SDS011;3835;48.850;8.938;2023-11-21T06:10:00;17.73;;;16.27;;
7587;SDS011;3835;48.850;8.938;2023-11-21T06:12:28;22.80;;;21.30;;
7587;SDS011;3835;48.850;8.938;2023-11-21T06:14:56;26.90;;;24.47;;
7587;SDS011;3835;48.850;8.938;2023-11-21T06:17:22;16.93;;;15.83;;
7587;SDS011;3835;48.850;8.938;2023-11-21T06:19:56;14.03;;;13.23;;
7587;SDS011;3835;48.850;8.938;2023-11-21T06:22:23;14.10;;;13.40;;
7587;SDS011;3835;48.850;8.938;2023-11-21T06:24:51;15.93;;;14.80;;
7587;SDS011;3835;48.850;8.938;2023-11-21T06:27:18;17.93;;;16.63;;
7587;SDS011;3835;48.850;8.938;2023-11-21T06:29:45;20.70;;;18.60;;
7587;SDS011;3835;48.850;8.938;2023-11-21T06:32:21;19.93;;;18.30;;
7587;SDS011;3835;48.850;8.938;2023-11-21T06:34:48;19.70;;;17.93;;
7587;SDS011;3835;48.850;8.938;2023-11-21T06:37:19;47.53;;;30.13;;
7587;SDS011;3835;48.850;8.938;2023-11-21T06:39:48;25.10;;;20.77;;
7587;SDS011;3835;48.850;8.938;2023-11-21T06:42:18;17.80;;;16.43;;
7587;SDS011;3835;48.850;8.938;2023-11-21T06:44:45;15.40;;;14.40;;
7587;SDS011;3835;48.850;8.938;2023-11-21T06:47:13;15.60;;;14.60;;
7587;SDS011;3835;48.850;8.938;2023-11-21T06:49:40;16.90;;;15.80;;
7587;SDS011;3835;48.850;8.938;2023-11-21T06:52:08;16.70;;;15.53;;
7587;SDS011;3835;48.850;8.938;2023-11-21T06:54:36;22.93;;;17.40;;
7587;SDS011;3835;48.850;8.938;2023-11-21T06:57:03;18.33;;;16.73;;
7587;SDS011;3835;48.850;8.938;2023-11-21T06:59:31;35.13;;;25.40;;
7587;SDS011;3835;48.850;8.938;2023-11-21T07:01:58;21.30;;;19.20;;
7587;SDS011;3835;48.850;8.938;2023-11-21T07:04:25;29.53;;;24.87;;
7587;SDS011;3835;48.850;8.938;2023-11-21T07:06:52;35.33;;;26.20;;
7587;SDS011;3835;48.850;8.938;2023-11-21T07:09:19;28.93;;;24.20;;
7587;SDS011;3835;48.850;8.938;2023-11-21T07:11:47;21.70;;;19.40;;
7587;SDS011;3835;48.850;8.938;2023-11-21T07:14:14;21.57;;;19.40;;
7587;SDS011;3835;48.850;8.938;2023-11-21T07:16:43;16.40;;;15.10;;
7587;SDS011;3835;48.850;8.938;2023-11-21T07:19:10;17.03;;;15.87;;
7587;SDS011;3835;48.850;8.938;2023-11-21T07:21:37;15.23;;;14.13;;
7587;SDS011;3835;48.850;8.938;2023-11-21T07:24:05;14.80;;;13.90;;
7587;SDS011;3835;48.850;8.938;2023-11-21T07:26:33;15.23;;;14.20;;
7587;SDS011;3835;48.850;8.938;2023-11-21T07:29:01;14.60;;;13.50;;
7587;SDS011;3835;48.850;8.938;2023-11-21T07:31:28;19.60;;;17.93;;
7587;SDS011;3835;48.850;8.938;2023-11-21T07:33:57;17.80;;;16.27;;
7587;SDS011;3835;48.850;8.938;2023-11-21T07:36:24;15.87;;;14.47;;
7587;SDS011;3835;48.850;8.938;2023-11-21T07:38:51;15.07;;;14.07;;
7587;SDS011;3835;48.850;8.938;2023-11-21T07:41:18;14.87;;;13.87;;
7587;SDS011;3835;48.850;8.938;2023-11-21T07:43:45;16.17;;;15.03;;
7587;SDS011;3835;48.850;8.938;2023-11-21T07:46:13;15.47;;;14.23;;
7587;SDS011;3835;48.850;8.938;2023-11-21T07:48:40;15.03;;;14.03;;
7587;SDS011;3835;48.850;8.938;2023-11-21T07:51:10;16.10;;;15.00;;
7587;SDS011;3835;48.850;8.938;2023-11-21T07:53:38;15.80;;;14.70;;
7587;SDS011;3835;48.850;8.938;2023-11-21T07:56:05;15.50;;;14.40;;
7587;SDS011;3835;48.850;8.938;2023-11-21T07:58:33;14.23;;;13.33;;
7587;SDS011;3835;48.850;8.938;2023-11-21T08:01:00;15.73;;;14.57;;
7587;SDS011;3835;48.850;8.938;2023-11-21T08:03:28;17.40;;;16.10;;
7587;SDS011;3835;48.850;8.938;2023-11-21T08:05:55;16.53;;;15.10;;
7587;SDS011;3835;48.850;8.938;2023-11-21T08:08:24;17.50;;;16.33;;
7587;SDS011;3835;48.850;8.938;2023-11-21T08:10:51;17.20;;;15.93;;
7587;SDS011;3835;48.850;8.938;2023-11-21T08:13:21;18.03;;;16.73;;
7587;SDS011;3835;48.850;8.938;2023-11-21T08:15:48;17.10;;;15.60;;
7587;SDS011;3835;48.850;8.938;2023-11-21T08:18:15;14.57;;;13.47;;
7587;SDS011;3835;48.850;8.938;2023-11-21T08:20:42;14.47;;;13.67;;
7587;SDS011;3835;48.850;8.938;2023-11-21T08:23:13;13.47;;;12.57;;
7587;SDS011;3835;48.850;8.938;2023-11-21T08:25:42;13.93;;;13.13;;
7587;SDS011;3835;48.850;8.938;2023-11-21T08:28:09;12.70;;;11.90;;
7587;SDS011;3835;48.850;8.938;2023-11-21T08:30:36;14.50;;;13.40;;
7587;SDS011;3835;48.850;8.938;2023-11-21T08:33:03;15.90;;;14.70;;
7587;SDS011;3835;48.850;8.938;2023-11-21T08:35:31;17.10;;;15.67;;
7587;SDS011;3835;48.850;8.938;2023-11-21T08:37:57;15.83;;;14.77;;
7587;SDS011;3835;48.850;8.938;2023-11-21T08:40:24;14.97;;;14.00;;
7587;SDS011;3835;48.850;8.938;2023-11-21T08:42:52;14.43;;;13.63;;
7587;SDS011;3835;48.850;8.938;2023-11-21T08:45:21;14.70;;;13.47;;
7587;SDS011;3835;48.850;8.938;2023-11-21T08:47:48;15.40;;;14.27;;
7587;SDS011;3835;48.850;8.938;2023-11-21T08:50:15;14.70;;;13.80;;
7587;SDS011;3835;48.850;8.938;2023-11-21T08:52:44;15.80;;;14.90;;
7587;SDS011;3835;48.850;8.938;2023-11-21T08:55:12;14.50;;;13.60;;
7587;SDS011;3835;48.850;8.938;2023-11-21T08:57:39;15.03;;;14.23;;
7587;SDS011;3835;48.850;8.938;2023-11-21T09:00:08;15.67;;;14.77;;
7587;SDS011;3835;48.850;8.938;2023-11-21T09:02:37;15.73;;;14.80;;
7587;SDS011;3835;48.850;8.938;2023-11-21T09:05:07;15.30;;;14.37;;
7587;SDS011;3835;48.850;8.938;2023-11-21T09:07:34;15.33;;;14.53;;
7587;SDS011;3835;48.850;8.938;2023-11-21T09:10:01;15.30;;;14.50;;
7587;SDS011;3835;48.850;8.938;2023-11-21T09:12:28;14.10;;;13.33;;
7587;SDS011;3835;48.850;8.938;2023-11-21T09:14:57;15.20;;;14.30;;
7587;SDS011;3835;48.850;8.938;2023-11-21T09:17:25;13.13;;;12.37;;
7587;SDS011;3835;48.850;8.938;2023-11-21T09:20:00;14.40;;;13.60;;
7587;SDS011;3835;48.850;8.938;2023-11-21T09:22:35;13.57;;;12.57;;
7587;SDS011;3835;48.850;8.938;2023-11-21T09:25:02;14.10;;;13.30;;
7587;SDS011;3835;48.850;8.938;2023-11-21T09:27:30;13.33;;;12.53;;
7587;SDS011;3835;48.850;8.938;2023-11-21T09:29:57;14.97;;;13.87;;
7587;SDS011;3835;48.850;8.938;2023-11-21T09:32:25;15.27;;;14.37;;
7587;SDS011;3835;48.850;8.938;2023-11-21T09:34:52;14.80;;;13.90;;
7587;SDS011;3835;48.850;8.938;2023-11-21T09:37:20;14.60;;;13.70;;
7587;SDS011;3835;48.850;8.938;2023-11-21T09:39:47;14.87;;;14.07;;
7587;SDS011;3835;48.850;8.938;2023-11-21T09:42:15;15.30;;;14.10;;
7587;SDS011;3835;48.850;8.938;2023-11-21T09:44:48;14.30;;;13.40;;
7587;SDS011;3835;48.850;8.938;2023-11-21T09:47:20;14.23;;;13.43;;
7587;SDS011;3835;48.850;8.938;2023-11-21T09:49:50;15.10;;;14.13;;
7587;SDS011;3835;48.850;8.938;2023-11-21T09:52:22;13.80;;;13.00;;
7587;SDS011;3835;48.850;8.938;2023-11-21T09:54:52;15.33;;;14.43;;
7587;SDS011;3835;48.850;8.938;2023-11-21T09:57:20;13.40;;;12.70;;
7587;SDS011;3835;48.850;8.938;2023-11-21T09:59:48;15.10;;;14.33;;
7587;SDS011;3835;48.850;8.938;2023-11-21T10:02:19;13.93;;;13.13;;
7587;SDS011;3835;48.850;8.938;2023-11-21T10:04:52;14.63;;;13.93;;
7587;SDS011;3835;48.850;8.938;2023-11-21T10:07:19;13.10;;;12.50;;
7587;SDS011;3835;48.850;8.938;2023-11-21T10:09:47;12.73;;;12.23;;
7587;SDS011;3835;48.850;8.938;2023-11-21T10:12:15;10.93;;;10.33;;
7587;SDS011;3835;48.850;8.938;2023-11-21T10:14:42;10.57;;;10.17;;
7587;SDS011;3835;48.850;8.938;2023-11-21T10:17:12;11.93;;;11.47;;
7587;SDS011;3835;48.850;8.938;2023-11-21T10:19:43;10.53;;;10.03;;
7587;SDS011;3835;48.850;8.938;2023-11-21T10:22:13;10.80;;;10.40;;
7587;SDS011;3835;48.850;8.938;2023-11-21T10:24:42;11.27;;;10.80;;
7587;SDS011;3835;48.850;8.938;2023-11-21T10:27:09;11.83;;;11.33;;
7587;SDS011;3835;48.850;8.938;2023-11-21T10:29:36;11.47;;;10.97;;
7587;SDS011;3835;48.850;8.938;2023-11-21T10:32:04;12.47;;;11.97;;
7587;SDS011;3835;48.850;8.938;2023-11-21T10:34:31;11.90;;;11.40;;
7587;SDS011;3835;48.850;8.938;2023-11-21T10:37:00;10.83;;;10.43;;
7587;SDS011;3835;48.850;8.938;2023-11-21T10:39:39;11.33;;;10.83;;
7587;SDS011;3835;48.850;8.938;2023-11-21T10:42:09;12.37;;;11.87;;
7587;SDS011;3835;48.850;8.938;2023-11-21T10:44:36;10.67;;;10.27;;
7587;SDS011;3835;48.850;8.938;2023-11-21T10:47:03;11.30;;;10.90;;
7587;SDS011;3835;48.850;8.938;2023-11-21T10:49:30;11.67;;;11.20;;
7587;SDS011;3835;48.850;8.938;2023-11-21T10:51:57;11.67;;;11.17;;
7587;SDS011;3835;48.850;8.938;2023-11-21T10:54:24;13.57;;;12.97;;
7587;SDS011;3835;48.850;8.938;2023-11-21T10:56:56;12.53;;;11.93;;
7587;SDS011;3835;48.850;8.938;2023-11-21T10:59:25;11.67;;;11.10;;
7587;SDS011;3835;48.850;8.938;2023-11-21T11:01:57;11.87;;;11.37;;
7587;SDS011;3835;48.850;8.938;2023-11-21T11:04:27;13.27;;;12.67;;
7587;SDS011;3835;48.850;8.938;2023-11-21T11:06:54;12.27;;;11.77;;
7587;SDS011;3835;48.850;8.938;2023-11-21T11:09:23;12.17;;;11.57;;
7587;SDS011;3835;48.850;8.938;2023-11-21T11:11:50;13.57;;;12.97;;
7587;SDS011;3835;48.850;8.938;2023-11-21T11:14:19;13.83;;;13.13;;
7587;SDS011;3835;48.850;8.938;2023-11-21T11:16:50;12.87;;;12.27;;
7587;SDS011;3835;48.850;8.938;2023-11-21T11:19:20;13.80;;;13.00;;
7587;SDS011;3835;48.850;8.938;2023-11-21T11:21:49;13.23;;;12.53;;
7587;SDS011;3835;48.850;8.938;2023-11-21T11:24:32;14.83;;;13.93;;
7587;SDS011;3835;48.850;8.938;2023-11-21T11:27:09;14.83;;;13.90;;
7587;SDS011;3835;48.850;8.938;2023-11-21T11:29:45;14.73;;;13.93;;
7587;SDS011;3835;48.850;8.938;2023-11-21T11:32:21;14.03;;;13.23;;
7587;SDS011;3835;48.850;8.938;2023-11-21T11:35:07;15.80;;;14.80;;
7587;SDS011;3835;48.850;8.938;2023-11-21T11:37:41;15.33;;;14.30;;
7587;SDS011;3835;48.850;8.938;2023-11-21T11:40:10;14.43;;;13.53;;
7587;SDS011;3835;48.850;8.938;2023-11-21T11:42:38;15.07;;;14.07;;
7587;SDS011;3835;48.850;8.938;2023-11-21T11:45:18;14.97;;;13.97;;
7587;SDS011;3835;48.850;8.938;2023-11-21T11:47:45;15.10;;;14.20;;
7587;SDS011;3835;48.850;8.938;2023-11-21T11:50:14;14.87;;;13.87;;
7587;SDS011;3835;48.850;8.938;2023-11-21T11:52:43;14.83;;;13.90;;
7587;SDS011;3835;48.850;8.938;2023-11-21T11:55:11;17.40;;;16.27;;
7587;SDS011;3835;48.850;8.938;2023-11-21T11:57:39;16.30;;;15.20;;
7587;SDS011;3835;48.850;8.938;2023-11-21T12:00:08;16.07;;;14.97;;
7587;SDS011;3835;48.850;8.938;2023-11-21T12:02:37;15.27;;;14.37;;
7587;SDS011;3835;48.850;8.938;2023-11-21T12:05:08;15.83;;;14.73;;
7587;SDS011;3835;48.850;8.938;2023-11-21T12:07:46;16.27;;;15.27;;
7587;SDS011;3835;48.850;8.938;2023-11-21T12:10:15;15.40;;;14.40;;
7587;SDS011;3835;48.850;8.938;2023-11-21T12:12:45;16.93;;;15.83;;
7587;SDS011;3835;48.850;8.938;2023-11-21T12:15:13;16.17;;;15.17;;
7587;SDS011;3835;48.850;8.938;2023-11-21T12:17:42;17.17;;;15.97;;
7587;SDS011;3835;48.850;8.938;2023-11-21T12:20:10;15.83;;;14.83;;
7587;SDS011;3835;48.850;8.938;2023-11-21T12:22:43;16.40;;;15.30;;
7587;SDS011;3835;48.850;8.938;2023-11-21T12:25:12;15.37;;;14.33;;
7587;SDS011;3835;48.850;8.938;2023-11-21T12:27:42;16.40;;;15.30;;
7587;SDS011;3835;48.850;8.938;2023-11-21T12:30:11;16.50;;;15.30;;
7587;SDS011;3835;48.850;8.938;2023-11-21T12:32:42;15.83;;;14.73;;
7587;SDS011;3835;48.850;8.938;2023-11-21T12:35:11;17.40;;;16.20;;
7587;SDS011;3835;48.850;8.938;2023-11-21T12:37:39;17.70;;;16.40;;
7587;SDS011;3835;48.850;8.938;2023-11-21T12:40:08;17.83;;;16.43;;
7587;SDS011;3835;48.850;8.938;2023-11-21T12:42:37;18.50;;;17.20;;
7587;SDS011;3835;48.850;8.938;2023-11-21T12:45:07;17.03;;;15.83;;
7587;SDS011;3835;48.850;8.938;2023-11-21T12:47:39;15.43;;;14.33;;
7587;SDS011;3835;48.850;8.938;2023-11-21T12:50:08;17.03;;;15.50;;
7587;SDS011;3835;48.850;8.938;2023-11-21T12:52:40;16.53;;;15.53;;
7587;SDS011;3835;48.850;8.938;2023-11-21T12:55:09;15.53;;;14.53;;
7587;SDS011;3835;48.850;8.938;2023-11-21T12:57:40;14.40;;;13.60;;
7587;SDS011;3835;48.850;8.938;2023-11-21T13:00:09;14.90;;;14.00;;
7587;SDS011;3835;48.850;8.938;2023-11-21T13:02:42;13.60;;;12.80;;
7587;SDS011;3835;48.850;8.938;2023-11-21T13:05:09;12.50;;;11.53;;
7587;SDS011;3835;48.850;8.938;2023-11-21T13:07:46;12.77;;;12.07;;
7587;SDS011;3835;48.850;8.938;2023-11-21T13:10:16;13.73;;;12.93;;
7587;SDS011;3835;48.850;8.938;2023-11-21T13:12:43;15.13;;;14.33;;
7587;SDS011;3835;48.850;8.938;2023-11-21T13:15:13;13.20;;;12.40;;
7587;SDS011;3835;48.850;8.938;2023-11-21T13:17:43;14.43;;;13.53;;
7587;SDS011;3835;48.850;8.938;2023-11-21T13:20:11;15.50;;;14.60;;
7587;SDS011;3835;48.850;8.938;2023-11-21T13:22:44;14.93;;;14.13;;
7587;SDS011;3835;48.850;8.938;2023-11-21T13:25:13;13.70;;;12.90;;
7587;SDS011;3835;48.850;8.938;2023-11-21T13:27:42;13.87;;;13.17;;
7587;SDS011;3835;48.850;8.938;2023-11-21T13:30:10;13.90;;;13.13;;
7587;SDS011;3835;48.850;8.938;2023-11-21T13:32:40;13.70;;;12.93;;
7587;SDS011;3835;48.850;8.938;2023-11-21T13:35:08;15.07;;;14.07;;
7587;SDS011;3835;48.850;8.938;2023-11-21T13:37:45;13.17;;;12.47;;
7587;SDS011;3835;48.850;8.938;2023-11-21T13:40:14;14.07;;;13.27;;
7587;SDS011;3835;48.850;8.938;2023-11-21T13:42:47;13.67;;;12.97;;
7587;SDS011;3835;48.850;8.938;2023-11-21T13:45:18;14.37;;;13.57;;
7587;SDS011;3835;48.850;8.938;2023-11-21T13:47:47;14.10;;;13.40;;
7587;SDS011;3835;48.850;8.938;2023-11-21T13:50:17;13.93;;;13.23;;
7587;SDS011;3835;48.850;8.938;2023-11-21T13:52:48;14.73;;;13.93;;
7587;SDS011;3835;48.850;8.938;2023-11-21T13:55:16;14.43;;;13.63;;
7587;SDS011;3835;48.850;8.938;2023-11-21T13:57:43;13.83;;;13.13;;
7587;SDS011;3835;48.850;8.938;2023-11-21T14:00:14;14.03;;;13.23;;
7587;SDS011;3835;48.850;8.938;2023-11-21T14:03:06;12.93;;;12.23;;
7587;SDS011;3835;48.850;8.938;2023-11-21T14:05:42;12.60;;;11.90;;
7587;SDS011;3835;48.850;8.938;2023-11-21T14:08:11;13.30;;;12.50;;
7587;SDS011;3835;48.850;8.938;2023-11-21T14:10:41;12.23;;;11.63;;
7587;SDS011;3835;48.850;8.938;2023-11-21T14:13:10;13.97;;;13.17;;
7587;SDS011;3835;48.850;8.938;2023-11-21T14:15:38;13.20;;;12.50;;
7587;SDS011;3835;48.850;8.938;2023-11-21T14:18:08;13.60;;;12.90;;
7587;SDS011;3835;48.850;8.938;2023-11-21T14:20:37;13.73;;;12.93;;
7587;SDS011;3835;48.850;8.938;2023-11-21T14:23:06;14.50;;;13.80;;
7587;SDS011;3835;48.850;8.938;2023-11-21T14:25:33;14.17;;;13.47;;
7587;SDS011;3835;48.850;8.938;2023-11-21T14:28:02;12.80;;;12.20;;
7587;SDS011;3835;48.850;8.938;2023-11-21T14:30:29;13.27;;;12.67;;
7587;SDS011;3835;48.850;8.938;2023-11-21T14:32:58;13.93;;;13.27;;
7587;SDS011;3835;48.850;8.938;2023-11-21T14:35:26;13.13;;;12.13;;
7587;SDS011;3835;48.850;8.938;2023-11-21T14:37:55;13.67;;;12.97;;
7587;SDS011;3835;48.850;8.938;2023-11-21T14:40:24;13.33;;;12.57;;
7587;SDS011;3835;48.850;8.938;2023-11-21T14:42:52;12.43;;;11.83;;
7587;SDS011;3835;48.850;8.938;2023-11-21T14:45:22;14.33;;;13.63;;
7587;SDS011;3835;48.850;8.938;2023-11-21T14:47:51;12.63;;;12.03;;
7587;SDS011;3835;48.850;8.938;2023-11-21T14:50:27;12.57;;;11.93;;
7587;SDS011;3835;48.850;8.938;2023-11-21T14:53:34;12.60;;;12.00;;
7587;SDS011;3835;48.850;8.938;2023-11-21T14:56:09;14.77;;;13.67;;